»·PEaware :: N4657 KCRQ-KHHR

N4657 :: KCRQ-KHHR

FLIGHT INFORMATION

Flight Status: Arrived
Operator: Privately registered:
United States
More flights under this callsign
Pilot: Daniel P. (20187)
Aircraft: PILATUS PC-12 EAGLE
(PC12)
More flights by this aircraft type
Origin: KCRQ McClellan-Palomar
United States
Destination: KHHR Northrop/Hawthorne Mun
United States
More flights between these airports :: More routes between these airports
Route: CWARD2 SLI SLI340 WELLZ HHR 25 LOC
File this flight plan on PilotEdge
Remarks: CWARD2 DEP
Altitude:
(Current/Filed)
80ft
Speed:
(Current/Filed)
200kts
Departed: 06-Oct-18 10:18 AM
Arrived: 06-Oct-18 10:50 AM
Distance/Time
Traveled:
71nm/0:32
Distance/Time
To Go:
Arrived

Flight Plot

Page will automatically refresh every two minutes.

Flight plan parsing failed; only flown route is shown


Map Options




Map Legend


Flown Route
Filed Route
Departure Airport
Arrival Airport
Navaid (VOR, NDB)
Fix

Horizontal Profiles

Position Reports

Time Latitude Longitude Heading Altitude Ground
Speed
06-Oct-18 10:00 33.127241 -117.278513 346 309ft 0kts
06-Oct-18 10:01 33.127241 -117.278513 346 309ft 0kts
06-Oct-18 10:02 33.127241 -117.278513 346 309ft 0kts
06-Oct-18 10:03 33.127241 -117.278513 346 309ft 0kts
06-Oct-18 10:04 33.127241 -117.278513 346 309ft 0kts
06-Oct-18 10:05 33.127241 -117.278513 346 309ft 0kts
06-Oct-18 10:06 33.127241 -117.278513 346 309ft 0kts
06-Oct-18 10:07 33.127241 -117.278513 346 309ft 0kts
06-Oct-18 10:08 33.127241 -117.278513 346 309ft 0kts
06-Oct-18 10:09 33.127241 -117.278513 346 309ft 0kts
06-Oct-18 10:10 33.127241 -117.278513 346 309ft 0kts
06-Oct-18 10:11 33.127241 -117.278513 346 309ft 0kts
06-Oct-18 10:12 33.127241 -117.278513 346 309ft 0kts
06-Oct-18 10:13 33.127241 -117.278513 346 309ft 0kts
06-Oct-18 10:14 33.127241 -117.278513 346 309ft 0kts
06-Oct-18 10:15 33.127916 -117.277009 79 309ft 13kts
06-Oct-18 10:16 33.128478 -117.273528 82 303ft 7kts
06-Oct-18 10:17 33.128614 -117.272932 45 302ft 0kts
06-Oct-18 10:18 33.128614 -117.272932 45 302ft 0kts
06-Oct-18 10:19 33.129220 -117.272318 4 302ft 6kts
06-Oct-18 10:20 33.127029 -117.288768 257 633ft 105kts
06-Oct-18 10:21 33.120884 -117.324254 255 2029ft 117kts
06-Oct-18 10:22 33.113684 -117.371221 258 3009ft 186kts
06-Oct-18 10:23 33.104275 -117.439453 258 3120ft 216kts
06-Oct-18 10:24 33.095599 -117.501359 257 4795ft 191kts
06-Oct-18 10:25 33.089166 -117.546665 257 5980ft 189kts
06-Oct-18 10:26 33.080309 -117.609151 257 7605ft 182kts
06-Oct-18 10:27 33.071814 -117.668965 258 8001ft 213kts
06-Oct-18 10:28 33.067517 -117.728159 292 7991ft 233kts
06-Oct-18 10:29 33.124398 -117.791402 315 7982ft 246kts
06-Oct-18 10:30 33.166595 -117.834311 315 7976ft 236kts
06-Oct-18 10:31 33.232780 -117.872100 344 7997ft 239kts
06-Oct-18 10:32 33.286408 -117.885282 344 7998ft 239kts
06-Oct-18 10:33 33.350609 -117.901241 344 7998ft 239kts
06-Oct-18 10:34 33.411853 -117.919695 339 7996ft 236kts
06-Oct-18 10:35 33.472069 -117.941547 339 7986ft 225kts
06-Oct-18 10:36 33.526448 -117.961249 339 7155ft 206kts
06-Oct-18 10:37 33.577983 -117.979935 340 6397ft 203kts
06-Oct-18 10:38 33.629425 -117.998777 339 5543ft 204kts
06-Oct-18 10:39 33.681647 -118.017959 342 4670ft 203kts
06-Oct-18 10:40 33.730275 -118.035631 342 3864ft 206kts
06-Oct-18 10:41 33.782241 -118.054486 346 3012ft 209kts
06-Oct-18 10:42 33.833684 -118.060188 354 2700ft 192kts
06-Oct-18 10:43 33.878810 -118.064918 354 2702ft 180kts
06-Oct-18 10:44 33.920142 -118.069244 352 2697ft 148kts
06-Oct-18 10:45 33.932812 -118.106413 269 2474ft 149kts
06-Oct-18 10:46 33.931292 -118.150628 266 2021ft 158kts
06-Oct-18 10:47 33.929171 -118.197032 266 1522ft 155kts
06-Oct-18 10:48 33.927220 -118.239477 266 1503ft 123kts
06-Oct-18 10:49 33.925579 -118.275643 266 963ft 98kts
06-Oct-18 10:50 33.924139 -118.303736 267 474ft 90kts
06-Oct-18 10:51 33.923031 -118.330778 266 58ft 77kts
06-Oct-18 10:52 33.923029 -118.337579 351 61ft 0kts
06-Oct-18 10:53 33.923029 -118.337579 351 61ft 0kts
06-Oct-18 10:54 33.923029 -118.337579 351 61ft 0kts
06-Oct-18 10:55 33.923029 -118.337579 351 61ft 0kts
06-Oct-18 10:56 33.923403 -118.336634 4 60ft 3kts
06-Oct-18 10:57 33.923376 -118.336454 173 60ft 0kts
06-Oct-18 10:58 33.923377 -118.336454 173 60ft 0kts

Navigation Log

Ident Type
Flight plan parsing failed, navigation log unavailable